sensor_id;sensor_type;location;lat;lon;timestamp;temperature;humidity
71188;DHT22;58893;53.130;8.158;2023-03-23T00:01:02;14.00;98.90
71188;DHT22;58893;53.130;8.158;2023-03-23T00:03:28;14.00;98.90
71188;DHT22;58893;53.130;8.158;2023-03-23T00:05:55;14.00;98.90
71188;DHT22;58893;53.130;8.158;2023-03-23T00:08:28;14.00;98.90
71188;DHT22;58893;53.130;8.158;2023-03-23T00:10:53;14.00;98.90
71188;DHT22;58893;53.130;8.158;2023-03-23T00:13:24;14.00;98.90
71188;DHT22;58893;53.130;8.158;2023-03-23T00:15:50;14.00;99.00
71188;DHT22;58893;53.130;8.158;2023-03-23T00:18:20;14.00;99.00
71188;DHT22;58893;53.130;8.158;2023-03-23T00:20:51;14.00;99.00
71188;DHT22;58893;53.130;8.158;2023-03-23T00:23:19;14.00;99.00
71188;DHT22;58893;53.130;8.158;2023-03-23T00:25:49;14.00;99.00
71188;DHT22;58893;53.130;8.158;2023-03-23T00:28:16;14.00;99.00
71188;DHT22;58893;53.130;8.158;2023-03-23T00:30:42;14.00;99.00
71188;DHT22;58893;53.130;8.158;2023-03-23T00:33:10;14.10;99.00
71188;DHT22;58893;53.130;8.158;2023-03-23T00:35:38;14.00;99.00
71188;DHT22;58893;53.130;8.158;2023-03-23T00:38:04;14.10;99.10
71188;DHT22;58893;53.130;8.158;2023-03-23T00:40:30;14.10;99.10
71188;DHT22;58893;53.130;8.158;2023-03-23T00:42:56;14.00;99.00
71188;DHT22;58893;53.130;8.158;2023-03-23T00:45:21;14.10;99.10
71188;DHT22;58893;53.130;8.158;2023-03-23T00:47:49;14.10;99.10
71188;DHT22;58893;53.130;8.158;2023-03-23T00:50:16;14.10;99.10
71188;DHT22;58893;53.130;8.158;2023-03-23T00:52:43;14.10;99.10
71188;DHT22;58893;53.130;8.158;2023-03-23T00:55:09;14.10;99.10
71188;DHT22;58893;53.130;8.158;2023-03-23T00:57:35;14.10;99.10
71188;DHT22;58893;53.130;8.158;2023-03-23T01:00:01;14.10;99.10
71188;DHT22;58893;53.130;8.158;2023-03-23T01:02:29;14.10;99.10
71188;DHT22;58893;53.130;8.158;2023-03-23T01:04:54;14.10;99.10
71188;DHT22;58893;53.130;8.158;2023-03-23T01:07:21;14.10;99.10
71188;DHT22;58893;53.130;8.158;2023-03-23T01:09:48;14.10;99.10
71188;DHT22;58893;53.130;8.158;2023-03-23T01:12:14;14.10;99.00
71188;DHT22;58893;53.130;8.158;2023-03-23T01:14:40;14.10;99.00
71188;DHT22;58893;53.130;8.158;2023-03-23T01:17:06;14.10;99.00
71188;DHT22;58893;53.130;8.158;2023-03-23T01:19:32;14.10;99.00
71188;DHT22;58893;53.130;8.158;2023-03-23T01:21:57;14.10;99.00
71188;DHT22;58893;53.130;8.158;2023-03-23T01:24:23;14.10;98.90
71188;DHT22;58893;53.130;8.158;2023-03-23T01:26:49;14.10;98.90
71188;DHT22;58893;53.130;8.158;2023-03-23T01:29:14;14.20;98.90
71188;DHT22;58893;53.130;8.158;2023-03-23T01:31:40;14.20;98.90
71188;DHT22;58893;53.130;8.158;2023-03-23T01:34:07;14.20;98.80
71188;DHT22;58893;53.130;8.158;2023-03-23T01:36:33;14.20;98.80
71188;DHT22;58893;53.130;8.158;2023-03-23T01:39:04;14.20;98.70
71188;DHT22;58893;53.130;8.158;2023-03-23T01:41:31;14.20;98.70
71188;DHT22;58893;53.130;8.158;2023-03-23T01:43:58;14.20;98.70
71188;DHT22;58893;53.130;8.158;2023-03-23T01:46:28;14.20;98.60
71188;DHT22;58893;53.130;8.158;2023-03-23T01:48:55;14.20;98.50
71188;DHT22;58893;53.130;8.158;2023-03-23T01:51:24;14.20;98.40
71188;DHT22;58893;53.130;8.158;2023-03-23T01:53:59;14.20;98.40
71188;DHT22;58893;53.130;8.158;2023-03-23T01:56:36;14.20;98.30
71188;DHT22;58893;53.130;8.158;2023-03-23T01:59:07;14.20;98.30
71188;DHT22;58893;53.130;8.158;2023-03-23T02:01:34;14.20;98.20
71188;DHT22;58893;53.130;8.158;2023-03-23T02:04:04;14.20;98.10
71188;DHT22;58893;53.130;8.158;2023-03-23T02:06:30;14.20;98.00
71188;DHT22;58893;53.130;8.158;2023-03-23T02:08:56;14.20;98.00
71188;DHT22;58893;53.130;8.158;2023-03-23T02:11:22;14.20;97.80
71188;DHT22;58893;53.130;8.158;2023-03-23T02:13:48;14.20;97.60
71188;DHT22;58893;53.130;8.158;2023-03-23T02:19:01;14.20;97.50
71188;DHT22;58893;53.130;8.158;2023-03-23T02:27:50;14.20;97.30
71188;DHT22;58893;53.130;8.158;2023-03-23T02:35:56;14.20;97.10
71188;DHT22;58893;53.130;8.158;2023-03-23T02:40:56;14.20;96.90
71188;DHT22;58893;53.130;8.158;2023-03-23T02:43:27;14.20;96.90
71188;DHT22;58893;53.130;8.158;2023-03-23T02:45:54;14.20;96.80
71188;DHT22;58893;53.130;8.158;2023-03-23T02:48:24;14.20;96.70
71188;DHT22;58893;53.130;8.158;2023-03-23T02:50:52;14.20;96.70
71188;DHT22;58893;53.130;8.158;2023-03-23T02:53:21;14.20;96.60
71188;DHT22;58893;53.130;8.158;2023-03-23T02:55:48;14.20;96.50
71188;DHT22;58893;53.130;8.158;2023-03-23T02:58:15;14.20;96.50
71188;DHT22;58893;53.130;8.158;2023-03-23T03:00:41;14.20;96.40
71188;DHT22;58893;53.130;8.158;2023-03-23T03:03:13;14.30;96.50
71188;DHT22;58893;53.130;8.158;2023-03-23T03:06:10;14.20;96.30
71188;DHT22;58893;53.130;8.158;2023-03-23T03:08:55;14.30;96.30
71188;DHT22;58893;53.130;8.158;2023-03-23T03:11:24;14.20;96.50
71188;DHT22;58893;53.130;8.158;2023-03-23T03:14:06;14.20;96.20
71188;DHT22;58893;53.130;8.158;2023-03-23T03:16:53;14.30;96.10
71188;DHT22;58893;53.130;8.158;2023-03-23T03:19:38;14.20;96.00
71188;DHT22;58893;53.130;8.158;2023-03-23T03:22:06;14.20;96.00
71188;DHT22;58893;53.130;8.158;2023-03-23T03:24:33;14.20;95.90
71188;DHT22;58893;53.130;8.158;2023-03-23T03:27:04;14.20;95.80
71188;DHT22;58893;53.130;8.158;2023-03-23T03:29:38;14.20;95.80
71188;DHT22;58893;53.130;8.158;2023-03-23T03:32:11;14.20;95.70
71188;DHT22;58893;53.130;8.158;2023-03-23T03:34:37;14.20;95.60
71188;DHT22;58893;53.130;8.158;2023-03-23T03:37:04;14.20;95.60
71188;DHT22;58893;53.130;8.158;2023-03-23T03:39:34;14.20;95.50
71188;DHT22;58893;53.130;8.158;2023-03-23T03:42:00;14.30;95.50
71188;DHT22;58893;53.130;8.158;2023-03-23T03:44:26;14.20;95.40
71188;DHT22;58893;53.130;8.158;2023-03-23T03:46:51;14.20;95.40
71188;DHT22;58893;53.130;8.158;2023-03-23T03:49:17;14.30;95.40
71188;DHT22;58893;53.130;8.158;2023-03-23T03:51:43;14.20;95.30
71188;DHT22;58893;53.130;8.158;2023-03-23T03:54:08;14.20;95.30
71188;DHT22;58893;53.130;8.158;2023-03-23T03:56:34;14.30;95.30
71188;DHT22;58893;53.130;8.158;2023-03-23T03:59:06;14.30;95.30
71188;DHT22;58893;53.130;8.158;2023-03-23T04:01:33;14.20;95.20
71188;DHT22;58893;53.130;8.158;2023-03-23T04:03:59;14.30;95.20
71188;DHT22;58893;53.130;8.158;2023-03-23T04:06:24;14.30;95.20
71188;DHT22;58893;53.130;8.158;2023-03-23T04:08:53;14.30;95.20
71188;DHT22;58893;53.130;8.158;2023-03-23T04:11:20;14.20;95.10
71188;DHT22;58893;53.130;8.158;2023-03-23T04:13:46;14.30;95.10
71188;DHT22;58893;53.130;8.158;2023-03-23T04:16:11;14.30;95.10
71188;DHT22;58893;53.130;8.158;2023-03-23T04:18:37;14.30;95.10
71188;DHT22;58893;53.130;8.158;2023-03-23T04:21:04;14.30;95.10
71188;DHT22;58893;53.130;8.158;2023-03-23T04:23:33;14.20;95.00
71188;DHT22;58893;53.130;8.158;2023-03-23T04:26:00;14.30;95.10
71188;DHT22;58893;53.130;8.158;2023-03-23T04:28:26;14.30;95.00
71188;DHT22;58893;53.130;8.158;2023-03-23T04:30:53;14.30;95.00
71188;DHT22;58893;53.130;8.158;2023-03-23T04:33:24;14.20;94.90
71188;DHT22;58893;53.130;8.158;2023-03-23T04:35:54;14.30;94.90
71188;DHT22;58893;53.130;8.158;2023-03-23T04:38:22;14.30;94.80
71188;DHT22;58893;53.130;8.158;2023-03-23T04:40:51;14.20;94.70
71188;DHT22;58893;53.130;8.158;2023-03-23T04:43:20;14.20;94.70
71188;DHT22;58893;53.130;8.158;2023-03-23T04:45:55;14.20;94.60
71188;DHT22;58893;53.130;8.158;2023-03-23T04:48:26;14.20;94.50
71188;DHT22;58893;53.130;8.158;2023-03-23T04:50:52;14.20;94.50
71188;DHT22;58893;53.130;8.158;2023-03-23T04:53:18;14.20;94.40
71188;DHT22;58893;53.130;8.158;2023-03-23T04:55:45;14.20;94.40
71188;DHT22;58893;53.130;8.158;2023-03-23T04:58:12;14.20;94.40
71188;DHT22;58893;53.130;8.158;2023-03-23T05:00:40;14.20;94.40
71188;DHT22;58893;53.130;8.158;2023-03-23T05:03:06;14.20;94.30
71188;DHT22;58893;53.130;8.158;2023-03-23T05:05:34;14.20;94.30
71188;DHT22;58893;53.130;8.158;2023-03-23T05:08:00;14.20;94.30
71188;DHT22;58893;53.130;8.158;2023-03-23T05:10:26;14.20;94.20
71188;DHT22;58893;53.130;8.158;2023-03-23T05:12:53;14.20;94.20
71188;DHT22;58893;53.130;8.158;2023-03-23T05:15:19;14.20;94.20
71188;DHT22;58893;53.130;8.158;2023-03-23T05:17:45;14.20;94.20
71188;DHT22;58893;53.130;8.158;2023-03-23T05:20:13;14.20;94.20
71188;DHT22;58893;53.130;8.158;2023-03-23T05:22:43;14.20;94.10
71188;DHT22;58893;53.130;8.158;2023-03-23T05:25:09;14.20;94.10
71188;DHT22;58893;53.130;8.158;2023-03-23T05:27:36;14.20;94.00
71188;DHT22;58893;53.130;8.158;2023-03-23T05:30:04;14.20;94.00
71188;DHT22;58893;53.130;8.158;2023-03-23T05:32:30;14.20;94.00
71188;DHT22;58893;53.130;8.158;2023-03-23T05:34:56;14.20;93.90
71188;DHT22;58893;53.130;8.158;2023-03-23T05:37:23;14.20;93.90
71188;DHT22;58893;53.130;8.158;2023-03-23T05:39:49;14.20;93.90
71188;DHT22;58893;53.130;8.158;2023-03-23T05:42:22;14.20;93.90
71188;DHT22;58893;53.130;8.158;2023-03-23T05:44:49;14.20;93.90
71188;DHT22;58893;53.130;8.158;2023-03-23T05:47:15;14.20;93.90
71188;DHT22;58893;53.130;8.158;2023-03-23T05:49:42;14.20;93.90
71188;DHT22;58893;53.130;8.158;2023-03-23T05:52:08;14.20;93.90
71188;DHT22;58893;53.130;8.158;2023-03-23T05:54:34;14.10;93.80
71188;DHT22;58893;53.130;8.158;2023-03-23T05:57:00;14.20;93.80
71188;DHT22;58893;53.130;8.158;2023-03-23T05:59:25;14.20;93.80
71188;DHT22;58893;53.130;8.158;2023-03-23T06:01:52;14.20;93.80
71188;DHT22;58893;53.130;8.158;2023-03-23T06:04:19;14.20;93.80
71188;DHT22;58893;53.130;8.158;2023-03-23T06:06:45;14.20;93.80
71188;DHT22;58893;53.130;8.158;2023-03-23T06:09:10;14.20;93.80
71188;DHT22;58893;53.130;8.158;2023-03-23T06:11:36;14.20;93.90
71188;DHT22;58893;53.130;8.158;2023-03-23T06:14:03;14.20;93.90
71188;DHT22;58893;53.130;8.158;2023-03-23T06:16:29;14.20;93.90
71188;DHT22;58893;53.130;8.158;2023-03-23T06:18:55;14.30;94.00
71188;DHT22;58893;53.130;8.158;2023-03-23T06:21:22;14.30;94.00
71188;DHT22;58893;53.130;8.158;2023-03-23T06:23:48;14.30;94.30
71188;DHT22;58893;53.130;8.158;2023-03-23T06:26:14;14.30;94.10
71188;DHT22;58893;53.130;8.158;2023-03-23T06:28:42;14.30;94.20
71188;DHT22;58893;53.130;8.158;2023-03-23T06:31:08;14.30;94.30
71188;DHT22;58893;53.130;8.158;2023-03-23T06:33:35;14.30;94.50
71188;DHT22;58893;53.130;8.158;2023-03-23T06:36:01;14.30;94.70
71188;DHT22;58893;53.130;8.158;2023-03-23T06:38:27;14.30;94.90
71188;DHT22;58893;53.130;8.158;2023-03-23T06:40:53;14.30;95.10
71188;DHT22;58893;53.130;8.158;2023-03-23T06:43:19;14.30;95.30
71188;DHT22;58893;53.130;8.158;2023-03-23T06:45:45;14.30;95.60
71188;DHT22;58893;53.130;8.158;2023-03-23T06:48:12;14.30;95.80
71188;DHT22;58893;53.130;8.158;2023-03-23T06:50:38;14.30;96.10
71188;DHT22;58893;53.130;8.158;2023-03-23T06:53:04;14.20;96.30
71188;DHT22;58893;53.130;8.158;2023-03-23T06:55:30;14.20;95.90
71188;DHT22;58893;53.130;8.158;2023-03-23T06:57:56;14.20;96.00
71188;DHT22;58893;53.130;8.158;2023-03-23T07:00:22;14.20;96.10
71188;DHT22;58893;53.130;8.158;2023-03-23T07:02:47;14.20;95.90
71188;DHT22;58893;53.130;8.158;2023-03-23T07:05:13;14.10;95.40
71188;DHT22;58893;53.130;8.158;2023-03-23T07:07:40;14.10;95.20
71188;DHT22;58893;53.130;8.158;2023-03-23T07:10:08;14.00;95.10
71188;DHT22;58893;53.130;8.158;2023-03-23T07:12:35;14.00;94.90
71188;DHT22;58893;53.130;8.158;2023-03-23T07:15:02;14.00;94.80
71188;DHT22;58893;53.130;8.158;2023-03-23T07:17:28;13.90;94.60
71188;DHT22;58893;53.130;8.158;2023-03-23T07:19:53;13.90;94.50
71188;DHT22;58893;53.130;8.158;2023-03-23T07:22:19;13.90;94.50
71188;DHT22;58893;53.130;8.158;2023-03-23T07:24:45;13.90;94.40
71188;DHT22;58893;53.130;8.158;2023-03-23T07:27:11;13.90;94.20
71188;DHT22;58893;53.130;8.158;2023-03-23T07:29:36;13.80;94.10
71188;DHT22;58893;53.130;8.158;2023-03-23T07:32:05;13.80;94.20
71188;DHT22;58893;53.130;8.158;2023-03-23T07:34:31;13.80;94.30
71188;DHT22;58893;53.130;8.158;2023-03-23T07:36:57;13.80;94.30
71188;DHT22;58893;53.130;8.158;2023-03-23T07:39:23;13.80;94.30
71188;DHT22;58893;53.130;8.158;2023-03-23T07:41:49;13.80;94.40
71188;DHT22;58893;53.130;8.158;2023-03-23T07:44:15;13.80;94.50
71188;DHT22;58893;53.130;8.158;2023-03-23T07:46:41;13.80;94.50
71188;DHT22;58893;53.130;8.158;2023-03-23T07:49:07;13.90;94.70
71188;DHT22;58893;53.130;8.158;2023-03-23T07:51:34;13.90;94.80
71188;DHT22;58893;53.130;8.158;2023-03-23T07:54:01;13.90;94.90
71188;DHT22;58893;53.130;8.158;2023-03-23T07:56:28;13.90;94.90
71188;DHT22;58893;53.130;8.158;2023-03-23T07:58:54;13.90;95.00
71188;DHT22;58893;53.130;8.158;2023-03-23T08:01:20;13.90;95.00
71188;DHT22;58893;53.130;8.158;2023-03-23T08:03:46;14.00;95.10
71188;DHT22;58893;53.130;8.158;2023-03-23T08:06:12;14.00;95.20
71188;DHT22;58893;53.130;8.158;2023-03-23T08:08:38;14.00;95.20
71188;DHT22;58893;53.130;8.158;2023-03-23T08:11:05;14.00;95.20
71188;DHT22;58893;53.130;8.158;2023-03-23T08:13:31;14.10;95.20
71188;DHT22;58893;53.130;8.158;2023-03-23T08:15:58;14.10;95.30
71188;DHT22;58893;53.130;8.158;2023-03-23T08:18:25;14.10;95.20
71188;DHT22;58893;53.130;8.158;2023-03-23T08:20:51;14.20;95.20
71188;DHT22;58893;53.130;8.158;2023-03-23T08:23:19;14.20;95.10
71188;DHT22;58893;53.130;8.158;2023-03-23T08:25:45;14.20;95.10
71188;DHT22;58893;53.130;8.158;2023-03-23T08:28:11;14.30;94.70
71188;DHT22;58893;53.130;8.158;2023-03-23T08:30:39;14.30;94.30
71188;DHT22;58893;53.130;8.158;2023-03-23T08:33:06;14.30;94.30
71188;DHT22;58893;53.130;8.158;2023-03-23T08:35:32;14.30;94.20
71188;DHT22;58893;53.130;8.158;2023-03-23T08:37:58;14.30;94.10
71188;DHT22;58893;53.130;8.158;2023-03-23T08:40:24;14.30;94.10
71188;DHT22;58893;53.130;8.158;2023-03-23T08:42:51;14.30;94.00
71188;DHT22;58893;53.130;8.158;2023-03-23T08:45:21;14.30;93.80
71188;DHT22;58893;53.130;8.158;2023-03-23T08:47:48;14.40;93.90
71188;DHT22;58893;53.130;8.158;2023-03-23T08:50:24;14.40;93.80
71188;DHT22;58893;53.130;8.158;2023-03-23T08:52:50;14.40;94.00
71188;DHT22;58893;53.130;8.158;2023-03-23T08:55:16;14.40;93.60
71188;DHT22;58893;53.130;8.158;2023-03-23T08:57:43;14.40;93.30
71188;DHT22;58893;53.130;8.158;2023-03-23T09:00:12;14.50;93.10
71188;DHT22;58893;53.130;8.158;2023-03-23T09:02:50;14.50;92.90
71188;DHT22;58893;53.130;8.158;2023-03-23T09:05:17;14.50;92.70
71188;DHT22;58893;53.130;8.158;2023-03-23T09:07:47;14.60;92.20
71188;DHT22;58893;53.130;8.158;2023-03-23T09:10:13;14.60;92.00
71188;DHT22;58893;53.130;8.158;2023-03-23T09:12:40;14.60;91.80
71188;DHT22;58893;53.130;8.158;2023-03-23T09:15:07;14.70;91.80
71188;DHT22;58893;53.130;8.158;2023-03-23T09:17:42;14.60;91.80
71188;DHT22;58893;53.130;8.158;2023-03-23T09:20:10;14.60;91.70
71188;DHT22;58893;53.130;8.158;2023-03-23T09:22:42;14.70;91.80
71188;DHT22;58893;53.130;8.158;2023-03-23T09:25:11;14.70;91.80
71188;DHT22;58893;53.130;8.158;2023-03-23T09:27:37;14.70;91.70
71188;DHT22;58893;53.130;8.158;2023-03-23T09:30:06;14.80;91.90
71188;DHT22;58893;53.130;8.158;2023-03-23T09:32:33;14.80;92.00
71188;DHT22;58893;53.130;8.158;2023-03-23T09:35:01;14.80;91.90
71188;DHT22;58893;53.130;8.158;2023-03-23T09:37:28;14.80;91.90
71188;DHT22;58893;53.130;8.158;2023-03-23T09:39:53;14.90;92.10
71188;DHT22;58893;53.130;8.158;2023-03-23T09:50:29;15.00;92.80
71188;DHT22;58893;53.130;8.158;2023-03-23T09:53:22;15.00;92.80
71188;DHT22;58893;53.130;8.158;2023-03-23T09:55:49;15.00;92.70
71188;DHT22;58893;53.130;8.158;2023-03-23T09:58:24;15.00;92.60
71188;DHT22;58893;53.130;8.158;2023-03-23T10:01:08;15.00;92.50
71188;DHT22;58893;53.130;8.158;2023-03-23T10:03:41;15.00;92.30
71188;DHT22;58893;53.130;8.158;2023-03-23T10:06:10;15.00;92.10
71188;DHT22;58893;53.130;8.158;2023-03-23T10:08:43;15.00;92.00
71188;DHT22;58893;53.130;8.158;2023-03-23T10:14:15;15.00;91.60
71188;DHT22;58893;53.130;8.158;2023-03-23T10:19:44;15.00;90.80
71188;DHT22;58893;53.130;8.158;2023-03-23T10:22:13;15.00;90.40
71188;DHT22;58893;53.130;8.158;2023-03-23T10:27:59;15.00;90.00
71188;DHT22;58893;53.130;8.158;2023-03-23T10:30:56;15.00;89.20
71188;DHT22;58893;53.130;8.158;2023-03-23T10:35:57;15.00;87.80
71188;DHT22;58893;53.130;8.158;2023-03-23T10:38:35;15.00;87.90
71188;DHT22;58893;53.130;8.158;2023-03-23T10:41:06;15.00;88.20
71188;DHT22;58893;53.130;8.158;2023-03-23T10:43:34;15.00;88.70
71188;DHT22;58893;53.130;8.158;2023-03-23T10:46:04;15.00;89.10
71188;DHT22;58893;53.130;8.158;2023-03-23T10:48:35;15.00;89.60
71188;DHT22;58893;53.130;8.158;2023-03-23T10:51:04;15.10;89.90
71188;DHT22;58893;53.130;8.158;2023-03-23T10:53:37;15.10;89.90
71188;DHT22;58893;53.130;8.158;2023-03-23T10:56:04;15.10;90.00
71188;DHT22;58893;53.130;8.158;2023-03-23T10:58:34;15.10;90.10
71188;DHT22;58893;53.130;8.158;2023-03-23T11:01:03;15.10;90.10
71188;DHT22;58893;53.130;8.158;2023-03-23T11:03:45;15.10;90.10
71188;DHT22;58893;53.130;8.158;2023-03-23T11:06:27;15.10;90.20
71188;DHT22;58893;53.130;8.158;2023-03-23T11:11:39;15.20;90.40
71188;DHT22;58893;53.130;8.158;2023-03-23T11:17:03;15.30;90.20
71188;DHT22;58893;53.130;8.158;2023-03-23T11:19:31;15.30;90.20
71188;DHT22;58893;53.130;8.158;2023-03-23T11:22:08;15.30;90.10
71188;DHT22;58893;53.130;8.158;2023-03-23T11:24:37;15.40;90.20
71188;DHT22;58893;53.130;8.158;2023-03-23T11:27:06;15.50;90.20
71188;DHT22;58893;53.130;8.158;2023-03-23T11:29:34;15.50;90.00
71188;DHT22;58893;53.130;8.158;2023-03-23T11:32:02;15.60;89.70
71188;DHT22;58893;53.130;8.158;2023-03-23T11:34:43;15.70;88.10
71188;DHT22;58893;53.130;8.158;2023-03-23T11:37:50;15.70;87.20
71188;DHT22;58893;53.130;8.158;2023-03-23T11:40:17;15.70;86.20
71188;DHT22;58893;53.130;8.158;2023-03-23T11:45:21;15.70;84.60
71188;DHT22;58893;53.130;8.158;2023-03-23T11:50:35;15.80;84.70
71188;DHT22;58893;53.130;8.158;2023-03-23T11:58:40;16.00;80.60
71188;DHT22;58893;53.130;8.158;2023-03-23T12:01:24;16.00;79.80
71188;DHT22;58893;53.130;8.158;2023-03-23T12:06:32;16.10;79.10
71188;DHT22;58893;53.130;8.158;2023-03-23T12:19:54;16.30;75.40
71188;DHT22;58893;53.130;8.158;2023-03-23T12:30:30;16.30;76.30
71188;DHT22;58893;53.130;8.158;2023-03-23T12:41:13;16.30;74.60
71188;DHT22;58893;53.130;8.158;2023-03-23T12:43:48;16.30;75.00
71188;DHT22;58893;53.130;8.158;2023-03-23T12:46:43;16.30;74.30
71188;DHT22;58893;53.130;8.158;2023-03-23T12:49:23;16.30;73.20
71188;DHT22;58893;53.130;8.158;2023-03-23T12:54:45;16.30;70.80
71188;DHT22;58893;53.130;8.158;2023-03-23T12:57:38;16.40;71.70
71188;DHT22;58893;53.130;8.158;2023-03-23T13:00:48;16.40;72.20
71188;DHT22;58893;53.130;8.158;2023-03-23T13:05:53;16.40;72.90
71188;DHT22;58893;53.130;8.158;2023-03-23T13:08:39;16.50;73.10
71188;DHT22;58893;53.130;8.158;2023-03-23T13:11:12;16.50;72.30
71188;DHT22;58893;53.130;8.158;2023-03-23T13:13:49;16.50;71.90
71188;DHT22;58893;53.130;8.158;2023-03-23T13:21:49;16.60;71.90
71188;DHT22;58893;53.130;8.158;2023-03-23T13:24:21;16.60;72.00
71188;DHT22;58893;53.130;8.158;2023-03-23T13:26:49;16.60;72.10
71188;DHT22;58893;53.130;8.158;2023-03-23T13:29:18;16.60;71.20
71188;DHT22;58893;53.130;8.158;2023-03-23T13:31:46;16.70;70.80
71188;DHT22;58893;53.130;8.158;2023-03-23T13:36:43;16.70;70.50
71188;DHT22;58893;53.130;8.158;2023-03-23T13:39:25;16.70;71.20
71188;DHT22;58893;53.130;8.158;2023-03-23T13:54:49;16.80;69.70
71188;DHT22;58893;53.130;8.158;2023-03-23T13:57:34;16.80;69.80
71188;DHT22;58893;53.130;8.158;2023-03-23T14:03:05;16.80;69.90
71188;DHT22;58893;53.130;8.158;2023-03-23T14:05:35;16.80;70.30
71188;DHT22;58893;53.130;8.158;2023-03-23T14:08:13;16.90;70.60
71188;DHT22;58893;53.130;8.158;2023-03-23T14:11:00;16.90;70.60
71188;DHT22;58893;53.130;8.158;2023-03-23T14:16:28;16.90;70.80
71188;DHT22;58893;53.130;8.158;2023-03-23T14:19:01;16.90;70.90
71188;DHT22;58893;53.130;8.158;2023-03-23T14:21:42;16.90;70.70
71188;DHT22;58893;53.130;8.158;2023-03-23T14:24:12;17.00;70.80
71188;DHT22;58893;53.130;8.158;2023-03-23T14:26:39;17.00;70.90
71188;DHT22;58893;53.130;8.158;2023-03-23T14:29:05;17.00;70.60
71188;DHT22;58893;53.130;8.158;2023-03-23T14:31:32;17.00;70.10
71188;DHT22;58893;53.130;8.158;2023-03-23T14:34:03;17.00;70.00
71188;DHT22;58893;53.130;8.158;2023-03-23T14:36:31;17.00;70.10
71188;DHT22;58893;53.130;8.158;2023-03-23T14:41:47;17.00;70.40
71188;DHT22;58893;53.130;8.158;2023-03-23T14:44:26;17.00;70.40
71188;DHT22;58893;53.130;8.158;2023-03-23T14:46:54;17.00;70.50
71188;DHT22;58893;53.130;8.158;2023-03-23T14:49:32;17.10;71.30
71188;DHT22;58893;53.130;8.158;2023-03-23T14:54:35;17.10;68.70
71188;DHT22;58893;53.130;8.158;2023-03-23T14:59:49;17.00;68.50
71188;DHT22;58893;53.130;8.158;2023-03-23T15:04:56;17.00;68.40
71188;DHT22;58893;53.130;8.158;2023-03-23T15:07:26;16.90;68.20
71188;DHT22;58893;53.130;8.158;2023-03-23T15:09:54;16.90;67.60
71188;DHT22;58893;53.130;8.158;2023-03-23T15:12:26;16.80;66.90
71188;DHT22;58893;53.130;8.158;2023-03-23T15:14:57;16.80;67.60
71188;DHT22;58893;53.130;8.158;2023-03-23T15:17:30;16.70;69.80
71188;DHT22;58893;53.130;8.158;2023-03-23T15:19:56;16.70;70.90
71188;DHT22;58893;53.130;8.158;2023-03-23T15:22:28;16.60;72.00
71188;DHT22;58893;53.130;8.158;2023-03-23T15:25:17;16.60;72.40
71188;DHT22;58893;53.130;8.158;2023-03-23T15:27:57;16.50;72.70
71188;DHT22;58893;53.130;8.158;2023-03-23T15:33:09;16.40;71.70
71188;DHT22;58893;53.130;8.158;2023-03-23T15:35:38;16.40;71.30
71188;DHT22;58893;53.130;8.158;2023-03-23T15:38:05;16.30;70.80
71188;DHT22;58893;53.130;8.158;2023-03-23T15:40:37;16.30;70.80
71188;DHT22;58893;53.130;8.158;2023-03-23T15:43:25;16.30;70.90
71188;DHT22;58893;53.130;8.158;2023-03-23T15:45:53;16.30;71.00
71188;DHT22;58893;53.130;8.158;2023-03-23T15:48:20;16.30;71.00
71188;DHT22;58893;53.130;8.158;2023-03-23T15:50:47;16.20;71.00
71188;DHT22;58893;53.130;8.158;2023-03-23T15:53:36;16.20;71.10
71188;DHT22;58893;53.130;8.158;2023-03-23T15:56:05;16.20;71.20
71188;DHT22;58893;53.130;8.158;2023-03-23T15:58:31;16.20;71.40
71188;DHT22;58893;53.130;8.158;2023-03-23T16:00:58;16.20;71.50
71188;DHT22;58893;53.130;8.158;2023-03-23T16:03:29;16.20;71.80
71188;DHT22;58893;53.130;8.158;2023-03-23T16:05:56;16.20;72.10
71188;DHT22;58893;53.130;8.158;2023-03-23T16:08:25;16.20;72.20
71188;DHT22;58893;53.130;8.158;2023-03-23T16:10:51;16.20;72.00
71188;DHT22;58893;53.130;8.158;2023-03-23T16:13:16;16.30;71.60
71188;DHT22;58893;53.130;8.158;2023-03-23T16:15:43;16.30;71.30
71188;DHT22;58893;53.130;8.158;2023-03-23T16:18:17;16.30;71.20
71188;DHT22;58893;53.130;8.158;2023-03-23T16:20:43;16.30;70.90
71188;DHT22;58893;53.130;8.158;2023-03-23T16:23:09;16.20;70.60
71188;DHT22;58893;53.130;8.158;2023-03-23T16:25:34;16.30;70.50
71188;DHT22;58893;53.130;8.158;2023-03-23T16:28:00;16.20;70.40
71188;DHT22;58893;53.130;8.158;2023-03-23T16:30:27;16.20;70.50
71188;DHT22;58893;53.130;8.158;2023-03-23T16:32:54;16.20;70.60
71188;DHT22;58893;53.130;8.158;2023-03-23T16:35:20;16.20;70.70
71188;DHT22;58893;53.130;8.158;2023-03-23T16:37:48;16.20;70.70
71188;DHT22;58893;53.130;8.158;2023-03-23T16:40:15;16.20;70.80
71188;DHT22;58893;53.130;8.158;2023-03-23T16:42:41;16.20;71.00
71188;DHT22;58893;53.130;8.158;2023-03-23T16:45:08;16.20;71.20
71188;DHT22;58893;53.130;8.158;2023-03-23T16:47:34;16.20;71.30
71188;DHT22;58893;53.130;8.158;2023-03-23T16:50:00;16.10;71.40
71188;DHT22;58893;53.130;8.158;2023-03-23T16:52:26;16.10;71.50
71188;DHT22;58893;53.130;8.158;2023-03-23T16:54:52;16.10;71.70
71188;DHT22;58893;53.130;8.158;2023-03-23T16:57:18;16.10;71.90
71188;DHT22;58893;53.130;8.158;2023-03-23T16:59:44;16.10;72.00
71188;DHT22;58893;53.130;8.158;2023-03-23T17:02:10;16.10;72.30
71188;DHT22;58893;53.130;8.158;2023-03-23T17:04:40;16.10;72.60
71188;DHT22;58893;53.130;8.158;2023-03-23T17:07:06;16.10;73.00
71188;DHT22;58893;53.130;8.158;2023-03-23T17:09:32;16.10;74.10
71188;DHT22;58893;53.130;8.158;2023-03-23T17:11:58;16.10;73.70
71188;DHT22;58893;53.130;8.158;2023-03-23T17:14:24;16.00;73.90
71188;DHT22;58893;53.130;8.158;2023-03-23T17:16:49;16.00;74.20
71188;DHT22;58893;53.130;8.158;2023-03-23T17:19:15;16.00;74.50
71188;DHT22;58893;53.130;8.158;2023-03-23T17:21:41;16.00;74.90
71188;DHT22;58893;53.130;8.158;2023-03-23T17:24:07;16.00;75.00
71188;DHT22;58893;53.130;8.158;2023-03-23T17:26:32;15.90;75.10
71188;DHT22;58893;53.130;8.158;2023-03-23T17:28:58;15.90;75.30
71188;DHT22;58893;53.130;8.158;2023-03-23T17:31:24;15.80;75.40
71188;DHT22;58893;53.130;8.158;2023-03-23T17:33:50;15.80;75.60
71188;DHT22;58893;53.130;8.158;2023-03-23T17:36:16;15.80;75.80
71188;DHT22;58893;53.130;8.158;2023-03-23T17:38:42;15.80;76.10
71188;DHT22;58893;53.130;8.158;2023-03-23T17:41:08;15.70;76.20
71188;DHT22;58893;53.130;8.158;2023-03-23T17:43:36;15.70;76.40
71188;DHT22;58893;53.130;8.158;2023-03-23T17:46:04;15.70;76.60
71188;DHT22;58893;53.130;8.158;2023-03-23T17:48:29;15.60;76.80
71188;DHT22;58893;53.130;8.158;2023-03-23T17:50:55;15.60;77.00